METAR Data
IDs: Format: Raw Decoded Include TAF

Data at: 1039 UTC 07 Dec 2022

KABY 070953Z AUTO 00000KT 1/4SM FG VV003 17/17 A3027 RMK AO2 SLP248 T01720167